sensor_id;sensor_type;location;lat;lon;timestamp;pressure;altitude;pressure_sealevel;temperature;humidity
27210;BME280;14721;42.668;23.386;2023-07-31T00:01:37;94824.59;;;22.28;72.49
27210;BME280;14721;42.668;23.386;2023-07-31T00:04:02;94885.44;;;22.63;72.90
27210;BME280;14721;42.668;23.386;2023-07-31T00:06:28;94862.13;;;22.54;72.88
27210;BME280;14721;42.668;23.386;2023-07-31T00:08:53;94897.66;;;22.67;73.31
27210;BME280;14721;42.668;23.386;2023-07-31T00:11:20;94895.31;;;22.64;73.38
27210;BME280;14721;42.668;23.386;2023-07-31T00:13:45;94894.94;;;22.67;73.56
27210;BME280;14721;42.668;23.386;2023-07-31T00:16:11;94893.78;;;22.55;73.87
27210;BME280;14721;42.668;23.386;2023-07-31T00:18:36;94880.00;;;22.42;73.78
27210;BME280;14721;42.668;23.386;2023-07-31T00:21:02;94900.50;;;22.59;74.22
27210;BME280;14721;42.668;23.386;2023-07-31T00:23:27;94901.56;;;22.58;73.94
27210;BME280;14721;42.668;23.386;2023-07-31T00:25:52;94896.72;;;22.60;73.98
27210;BME280;14721;42.668;23.386;2023-07-31T00:28:18;94863.47;;;22.43;73.86
27210;BME280;14721;42.668;23.386;2023-07-31T00:30:45;94886.38;;;22.49;74.60
27210;BME280;14721;42.668;23.386;2023-07-31T00:33:10;94889.81;;;22.57;74.31
27210;BME280;14721;42.668;23.386;2023-07-31T00:35:36;94855.50;;;22.42;74.49
27210;BME280;14721;42.668;23.386;2023-07-31T00:38:01;94866.66;;;22.47;75.05
27210;BME280;14721;42.668;23.386;2023-07-31T00:40:26;94837.59;;;22.26;75.20
27210;BME280;14721;42.668;23.386;2023-07-31T00:42:52;94848.19;;;22.42;75.33
27210;BME280;14721;42.668;23.386;2023-07-31T00:45:18;94862.06;;;22.47;75.80
27210;BME280;14721;42.668;23.386;2023-07-31T00:47:44;94843.41;;;22.44;75.60
27210;BME280;14721;42.668;23.386;2023-07-31T00:50:10;94854.47;;;22.43;76.14
27210;BME280;14721;42.668;23.386;2023-07-31T00:52:35;94875.81;;;22.39;77.04
27210;BME280;14721;42.668;23.386;2023-07-31T00:55:02;94876.19;;;22.36;77.44
27210;BME280;14721;42.668;23.386;2023-07-31T00:57:28;94870.28;;;22.33;77.70
27210;BME280;14721;42.668;23.386;2023-07-31T00:59:54;94871.53;;;22.30;78.04
27210;BME280;14721;42.668;23.386;2023-07-31T01:02:19;94834.03;;;22.04;78.64
27210;BME280;14721;42.668;23.386;2023-07-31T01:04:46;94852.09;;;22.12;79.43
27210;BME280;14721;42.668;23.386;2023-07-31T01:07:31;94840.31;;;22.05;79.58
27210;BME280;14721;42.668;23.386;2023-07-31T01:12:34;94857.63;;;22.18;80.53
27210;BME280;14721;42.668;23.386;2023-07-31T01:15:04;94851.00;;;22.06;81.23
27210;BME280;14721;42.668;23.386;2023-07-31T01:17:30;94856.84;;;22.03;81.66
27210;BME280;14721;42.668;23.386;2023-07-31T01:19:59;94791.94;;;21.65;82.01
27210;BME280;14721;42.668;23.386;2023-07-31T01:28:40;94826.84;;;21.76;83.26
27210;BME280;14721;42.668;23.386;2023-07-31T01:31:12;94844.63;;;21.78;83.82
27210;BME280;14721;42.668;23.386;2023-07-31T01:33:39;94830.59;;;21.60;84.15
27210;BME280;14721;42.668;23.386;2023-07-31T01:36:07;94827.25;;;21.58;84.57
27210;BME280;14721;42.668;23.386;2023-07-31T01:38:38;94816.09;;;21.53;84.66
27210;BME280;14721;42.668;23.386;2023-07-31T01:41:04;94845.75;;;21.69;84.87
27210;BME280;14721;42.668;23.386;2023-07-31T01:43:32;94832.59;;;21.52;85.36
27210;BME280;14721;42.668;23.386;2023-07-31T01:45:57;94844.56;;;21.57;85.70
27210;BME280;14721;42.668;23.386;2023-07-31T01:48:25;94788.16;;;21.24;86.03
27210;BME280;14721;42.668;23.386;2023-07-31T01:50:50;94810.53;;;21.40;86.16
27210;BME280;14721;42.668;23.386;2023-07-31T01:53:18;94801.09;;;21.22;86.90
27210;BME280;14721;42.668;23.386;2023-07-31T01:55:43;94834.88;;;21.34;87.74
27210;BME280;14721;42.668;23.386;2023-07-31T01:58:09;94837.31;;;21.29;88.01
27210;BME280;14721;42.668;23.386;2023-07-31T02:00:34;94848.28;;;21.35;88.24
27210;BME280;14721;42.668;23.386;2023-07-31T02:03:02;94869.38;;;21.48;87.94
27210;BME280;14721;42.668;23.386;2023-07-31T02:05:28;94845.28;;;21.30;88.56
27210;BME280;14721;42.668;23.386;2023-07-31T02:07:53;94810.94;;;20.94;89.23
27210;BME280;14721;42.668;23.386;2023-07-31T02:10:19;94837.66;;;21.19;89.58
27210;BME280;14721;42.668;23.386;2023-07-31T02:12:45;94856.53;;;21.27;89.86
27210;BME280;14721;42.668;23.386;2023-07-31T02:15:10;94837.75;;;21.11;90.51
27210;BME280;14721;42.668;23.386;2023-07-31T02:17:35;94855.84;;;21.04;91.55
27210;BME280;14721;42.668;23.386;2023-07-31T02:20:02;94856.47;;;21.06;91.51
27210;BME280;14721;42.668;23.386;2023-07-31T02:22:28;94879.34;;;21.12;92.32
27210;BME280;14721;42.668;23.386;2023-07-31T02:24:53;94855.22;;;20.94;92.66
27210;BME280;14721;42.668;23.386;2023-07-31T02:27:18;94874.84;;;21.04;92.79
27210;BME280;14721;42.668;23.386;2023-07-31T02:29:46;94876.81;;;21.10;93.02
27210;BME280;14721;42.668;23.386;2023-07-31T02:32:12;94861.69;;;20.93;93.23
27210;BME280;14721;42.668;23.386;2023-07-31T02:34:37;94880.44;;;21.17;93.16
27210;BME280;14721;42.668;23.386;2023-07-31T02:37:05;94877.72;;;21.17;92.85
27210;BME280;14721;42.668;23.386;2023-07-31T02:39:54;94861.16;;;21.12;92.96
27210;BME280;14721;42.668;23.386;2023-07-31T02:42:19;94870.44;;;21.18;92.99
27210;BME280;14721;42.668;23.386;2023-07-31T02:44:47;94874.94;;;21.25;93.03
27210;BME280;14721;42.668;23.386;2023-07-31T02:47:13;94857.03;;;21.16;93.05
27210;BME280;14721;42.668;23.386;2023-07-31T02:49:38;94856.47;;;21.21;92.94
27210;BME280;14721;42.668;23.386;2023-07-31T02:52:04;94878.28;;;21.27;92.94
27210;BME280;14721;42.668;23.386;2023-07-31T02:54:29;94881.66;;;21.29;92.92
27210;BME280;14721;42.668;23.386;2023-07-31T02:56:54;94880.19;;;21.27;92.95
27210;BME280;14721;42.668;23.386;2023-07-31T02:59:20;94895.16;;;21.37;92.49
27210;BME280;14721;42.668;23.386;2023-07-31T03:01:47;94861.34;;;21.25;92.30
27210;BME280;14721;42.668;23.386;2023-07-31T03:04:12;94871.06;;;21.34;91.77
27210;BME280;14721;42.668;23.386;2023-07-31T03:06:38;94889.78;;;21.44;91.63
27210;BME280;14721;42.668;23.386;2023-07-31T03:09:03;94900.00;;;21.56;91.33
27210;BME280;14721;42.668;23.386;2023-07-31T03:11:29;94900.72;;;21.65;90.90
27210;BME280;14721;42.668;23.386;2023-07-31T03:13:54;94893.13;;;21.60;90.65
27210;BME280;14721;42.668;23.386;2023-07-31T03:16:20;94876.47;;;21.49;90.53
27210;BME280;14721;42.668;23.386;2023-07-31T03:18:45;94884.16;;;21.45;90.45
27210;BME280;14721;42.668;23.386;2023-07-31T03:21:10;94882.09;;;21.47;90.39
27210;BME280;14721;42.668;23.386;2023-07-31T03:23:36;94893.13;;;21.60;90.23
27210;BME280;14721;42.668;23.386;2023-07-31T03:26:06;94897.66;;;21.53;90.26
27210;BME280;14721;42.668;23.386;2023-07-31T03:28:33;94897.28;;;21.56;90.05
27210;BME280;14721;42.668;23.386;2023-07-31T03:30:58;94905.31;;;21.64;89.99
27210;BME280;14721;42.668;23.386;2023-07-31T03:33:25;94870.28;;;21.55;89.39
27210;BME280;14721;42.668;23.386;2023-07-31T03:35:50;94891.06;;;21.77;88.94
27210;BME280;14721;42.668;23.386;2023-07-31T03:38:16;94902.59;;;21.79;88.94
27210;BME280;14721;42.668;23.386;2023-07-31T03:40:41;94899.75;;;21.72;89.05
27210;BME280;14721;42.668;23.386;2023-07-31T03:43:07;94899.31;;;21.69;89.26
27210;BME280;14721;42.668;23.386;2023-07-31T03:45:32;94902.03;;;21.69;89.22
27210;BME280;14721;42.668;23.386;2023-07-31T03:47:58;94898.09;;;21.71;89.26
27210;BME280;14721;42.668;23.386;2023-07-31T03:50:25;94887.72;;;21.75;89.25
27210;BME280;14721;42.668;23.386;2023-07-31T03:52:51;94880.28;;;21.69;89.01
27210;BME280;14721;42.668;23.386;2023-07-31T03:55:16;94899.31;;;21.83;88.39
27210;BME280;14721;42.668;23.386;2023-07-31T03:57:41;94914.19;;;21.87;88.07
27210;BME280;14721;42.668;23.386;2023-07-31T04:00:07;94891.28;;;21.96;87.21
27210;BME280;14721;42.668;23.386;2023-07-31T04:02:35;94919.47;;;22.10;86.42
27210;BME280;14721;42.668;23.386;2023-07-31T04:05:01;94928.81;;;22.22;85.87
27210;BME280;14721;42.668;23.386;2023-07-31T04:07:26;94886.03;;;22.16;85.19
27210;BME280;14721;42.668;23.386;2023-07-31T04:09:52;94919.03;;;22.49;84.01
27210;BME280;14721;42.668;23.386;2023-07-31T04:12:17;94909.72;;;22.37;83.96
27210;BME280;14721;42.668;23.386;2023-07-31T04:14:43;94913.06;;;22.17;84.29
27210;BME280;14721;42.668;23.386;2023-07-31T04:17:08;94919.34;;;22.18;84.70
27210;BME280;14721;42.668;23.386;2023-07-31T04:19:34;94922.94;;;22.18;84.57
27210;BME280;14721;42.668;23.386;2023-07-31T04:21:59;94927.78;;;22.23;84.37
27210;BME280;14721;42.668;23.386;2023-07-31T04:24:24;94942.69;;;22.27;84.45
27210;BME280;14721;42.668;23.386;2023-07-31T04:26:51;94922.13;;;22.03;84.99
27210;BME280;14721;42.668;23.386;2023-07-31T04:29:16;94930.94;;;22.05;85.32
27210;BME280;14721;42.668;23.386;2023-07-31T04:31:42;94945.97;;;22.01;85.65
27210;BME280;14721;42.668;23.386;2023-07-31T04:34:07;94949.06;;;21.98;85.85
27210;BME280;14721;42.668;23.386;2023-07-31T04:36:33;94948.22;;;21.98;86.03
27210;BME280;14721;42.668;23.386;2023-07-31T04:38:59;94929.22;;;21.83;86.00
27210;BME280;14721;42.668;23.386;2023-07-31T04:41:26;94928.06;;;21.92;85.58
27210;BME280;14721;42.668;23.386;2023-07-31T04:43:53;94935.78;;;22.10;85.10
27210;BME280;14721;42.668;23.386;2023-07-31T04:46:18;94923.22;;;22.09;84.62
27210;BME280;14721;42.668;23.386;2023-07-31T04:48:44;94930.31;;;22.24;83.90
27210;BME280;14721;42.668;23.386;2023-07-31T04:51:09;94941.31;;;22.16;83.63
27210;BME280;14721;42.668;23.386;2023-07-31T04:53:35;94948.44;;;22.17;83.97
27210;BME280;14721;42.668;23.386;2023-07-31T04:56:01;94912.59;;;21.93;84.00
27210;BME280;14721;42.668;23.386;2023-07-31T04:58:26;94910.31;;;21.96;83.63
27210;BME280;14721;42.668;23.386;2023-07-31T05:00:52;94918.66;;;22.09;83.07
27210;BME280;14721;42.668;23.386;2023-07-31T05:03:18;94922.53;;;22.43;82.14
27210;BME280;14721;42.668;23.386;2023-07-31T05:05:43;94929.59;;;22.58;80.76
27210;BME280;14721;42.668;23.386;2023-07-31T05:08:09;94928.91;;;22.71;80.15
27210;BME280;14721;42.668;23.386;2023-07-31T05:10:37;94930.03;;;22.83;79.40
27210;BME280;14721;42.668;23.386;2023-07-31T05:13:03;94926.63;;;23.02;78.49
27210;BME280;14721;42.668;23.386;2023-07-31T05:15:28;94923.56;;;23.11;77.57
27210;BME280;14721;42.668;23.386;2023-07-31T05:17:54;94896.09;;;23.13;77.14
27210;BME280;14721;42.668;23.386;2023-07-31T05:20:23;94919.00;;;23.52;76.35
27210;BME280;14721;42.668;23.386;2023-07-31T05:22:48;94935.84;;;24.03;74.33
27210;BME280;14721;42.668;23.386;2023-07-31T05:25:14;94864.84;;;23.96;72.89
27210;BME280;14721;42.668;23.386;2023-07-31T05:27:39;94914.78;;;25.35;68.04
27210;BME280;14721;42.668;23.386;2023-07-31T05:30:07;94927.97;;;25.64;66.84
27210;BME280;14721;42.668;23.386;2023-07-31T05:32:33;94913.25;;;26.16;64.46
27210;BME280;14721;42.668;23.386;2023-07-31T05:34:58;94913.94;;;27.29;60.73
27210;BME280;14721;42.668;23.386;2023-07-31T05:37:24;94900.47;;;28.07;56.24
27210;BME280;14721;42.668;23.386;2023-07-31T05:39:49;94901.66;;;28.88;54.46
27210;BME280;14721;42.668;23.386;2023-07-31T05:42:17;94930.19;;;29.16;52.62
27210;BME280;14721;42.668;23.386;2023-07-31T05:44:42;94935.56;;;29.23;52.24
27210;BME280;14721;42.668;23.386;2023-07-31T05:47:08;94939.06;;;28.89;52.66
27210;BME280;14721;42.668;23.386;2023-07-31T05:49:34;94924.56;;;27.87;54.66
27210;BME280;14721;42.668;23.386;2023-07-31T05:51:59;94938.28;;;28.05;55.09
27210;BME280;14721;42.668;23.386;2023-07-31T05:54:24;94913.88;;;28.15;54.83
27210;BME280;14721;42.668;23.386;2023-07-31T05:56:50;94934.72;;;28.70;53.74
27210;BME280;14721;42.668;23.386;2023-07-31T05:59:16;94917.03;;;28.77;51.81
27210;BME280;14721;42.668;23.386;2023-07-31T06:01:41;94942.84;;;28.47;52.56
27210;BME280;14721;42.668;23.386;2023-07-31T06:04:08;94926.50;;;28.04;52.75
27210;BME280;14721;42.668;23.386;2023-07-31T06:06:34;94915.13;;;27.58;54.31
27210;BME280;14721;42.668;23.386;2023-07-31T06:09:03;94940.69;;;27.59;53.99
27210;BME280;14721;42.668;23.386;2023-07-31T06:11:30;94918.31;;;27.12;54.35
27210;BME280;14721;42.668;23.386;2023-07-31T06:13:55;94930.56;;;26.48;55.83
27210;BME280;14721;42.668;23.386;2023-07-31T06:16:21;94935.41;;;26.08;57.48
27210;BME280;14721;42.668;23.386;2023-07-31T06:18:49;94934.94;;;26.18;57.95
27210;BME280;14721;42.668;23.386;2023-07-31T06:21:14;94928.19;;;26.20;57.63
27210;BME280;14721;42.668;23.386;2023-07-31T06:23:40;94954.38;;;26.85;56.70
27210;BME280;14721;42.668;23.386;2023-07-31T06:26:05;94939.56;;;27.66;53.14
27210;BME280;14721;42.668;23.386;2023-07-31T06:28:31;94930.22;;;28.57;50.61
27210;BME280;14721;42.668;23.386;2023-07-31T06:30:58;94944.94;;;29.45;48.18
27210;BME280;14721;42.668;23.386;2023-07-31T06:33:24;94945.06;;;29.85;46.04
27210;BME280;14721;42.668;23.386;2023-07-31T06:35:55;94929.56;;;30.30;45.75
27210;BME280;14721;42.668;23.386;2023-07-31T06:38:25;94920.69;;;30.95;43.70
27210;BME280;14721;42.668;23.386;2023-07-31T06:40:51;94923.09;;;31.53;42.48
27210;BME280;14721;42.668;23.386;2023-07-31T06:43:16;94931.38;;;31.86;41.25
27210;BME280;14721;42.668;23.386;2023-07-31T06:45:48;94939.34;;;31.33;42.61
27210;BME280;14721;42.668;23.386;2023-07-31T06:48:18;94895.25;;;30.49;43.05
27210;BME280;14721;42.668;23.386;2023-07-31T06:50:44;94943.75;;;30.22;44.96
27210;BME280;14721;42.668;23.386;2023-07-31T06:53:10;94920.78;;;31.01;43.43
27210;BME280;14721;42.668;23.386;2023-07-31T06:55:37;94949.72;;;30.98;43.49
27210;BME280;14721;42.668;23.386;2023-07-31T06:58:09;94945.53;;;31.57;42.52
27210;BME280;14721;42.668;23.386;2023-07-31T07:00:38;94932.72;;;30.89;42.31
27210;BME280;14721;42.668;23.386;2023-07-31T07:03:03;94952.59;;;30.24;43.85
27210;BME280;14721;42.668;23.386;2023-07-31T07:05:29;94949.75;;;30.86;43.59
27210;BME280;14721;42.668;23.386;2023-07-31T07:07:54;94947.63;;;31.33;41.55
27210;BME280;14721;42.668;23.386;2023-07-31T07:10:19;94939.94;;;31.35;41.11
27210;BME280;14721;42.668;23.386;2023-07-31T07:12:45;94936.66;;;31.38;40.88
27210;BME280;14721;42.668;23.386;2023-07-31T07:15:11;94927.13;;;31.62;40.28
27210;BME280;14721;42.668;23.386;2023-07-31T07:17:38;94944.09;;;31.54;40.17
27210;BME280;14721;42.668;23.386;2023-07-31T07:20:04;94924.97;;;32.02;39.45
27210;BME280;14721;42.668;23.386;2023-07-31T07:22:31;94926.50;;;32.31;39.70
27210;BME280;14721;42.668;23.386;2023-07-31T07:24:56;94933.78;;;32.37;38.73
27210;BME280;14721;42.668;23.386;2023-07-31T07:27:22;94918.19;;;32.75;38.89
27210;BME280;14721;42.668;23.386;2023-07-31T07:29:50;94937.03;;;32.99;37.75
27210;BME280;14721;42.668;23.386;2023-07-31T07:32:16;94940.78;;;32.88;37.72
27210;BME280;14721;42.668;23.386;2023-07-31T07:34:42;94948.34;;;32.33;38.37
27210;BME280;14721;42.668;23.386;2023-07-31T07:37:08;94934.63;;;32.59;37.76
27210;BME280;14721;42.668;23.386;2023-07-31T07:39:33;94955.84;;;32.54;38.53
27210;BME280;14721;42.668;23.386;2023-07-31T07:41:59;94947.38;;;31.84;39.74
27210;BME280;14721;42.668;23.386;2023-07-31T07:44:24;94935.06;;;31.59;40.20
27210;BME280;14721;42.668;23.386;2023-07-31T07:46:50;94928.72;;;31.42;40.77
27210;BME280;14721;42.668;23.386;2023-07-31T07:49:15;94953.25;;;31.10;41.41
27210;BME280;14721;42.668;23.386;2023-07-31T07:51:42;94941.16;;;30.55;42.40
27210;BME280;14721;42.668;23.386;2023-07-31T07:54:07;94964.50;;;29.90;43.40
27210;BME280;14721;42.668;23.386;2023-07-31T07:56:33;94961.25;;;30.95;42.29
27210;BME280;14721;42.668;23.386;2023-07-31T07:58:58;94950.38;;;31.50;41.38
27210;BME280;14721;42.668;23.386;2023-07-31T08:01:24;94960.94;;;31.86;39.23
27210;BME280;14721;42.668;23.386;2023-07-31T08:03:50;94955.59;;;31.18;40.20
27210;BME280;14721;42.668;23.386;2023-07-31T08:06:15;94958.91;;;31.48;39.84
27210;BME280;14721;42.668;23.386;2023-07-31T08:08:42;94935.00;;;31.87;39.09
27210;BME280;14721;42.668;23.386;2023-07-31T08:11:08;94937.34;;;32.54;37.88
27210;BME280;14721;42.668;23.386;2023-07-31T08:13:34;94941.22;;;33.02;37.17
27210;BME280;14721;42.668;23.386;2023-07-31T08:16:02;94946.53;;;33.35;36.31
27210;BME280;14721;42.668;23.386;2023-07-31T08:18:30;94932.59;;;33.51;36.31
27210;BME280;14721;42.668;23.386;2023-07-31T08:20:56;94931.13;;;32.26;37.66
27210;BME280;14721;42.668;23.386;2023-07-31T08:23:21;94944.59;;;30.90;40.19
27210;BME280;14721;42.668;23.386;2023-07-31T08:25:48;94946.44;;;31.29;40.01
27210;BME280;14721;42.668;23.386;2023-07-31T08:28:16;94911.69;;;31.66;38.17
27210;BME280;14721;42.668;23.386;2023-07-31T08:30:41;94955.94;;;32.21;37.55
27210;BME280;14721;42.668;23.386;2023-07-31T08:33:08;94919.03;;;32.32;37.38
27210;BME280;14721;42.668;23.386;2023-07-31T08:35:34;94944.88;;;32.86;36.94
27210;BME280;14721;42.668;23.386;2023-07-31T08:38:02;94938.94;;;32.94;36.24
27210;BME280;14721;42.668;23.386;2023-07-31T08:40:28;94935.47;;;33.08;35.76
27210;BME280;14721;42.668;23.386;2023-07-31T08:42:56;94929.66;;;33.36;35.46
27210;BME280;14721;42.668;23.386;2023-07-31T08:45:24;94947.69;;;33.70;34.75
27210;BME280;14721;42.668;23.386;2023-07-31T08:47:51;94930.78;;;33.72;34.75
27210;BME280;14721;42.668;23.386;2023-07-31T08:50:19;94949.47;;;34.18;34.11
27210;BME280;14721;42.668;23.386;2023-07-31T08:52:49;94947.31;;;34.30;33.81
27210;BME280;14721;42.668;23.386;2023-07-31T08:55:19;94933.91;;;34.17;33.92
27210;BME280;14721;42.668;23.386;2023-07-31T08:57:52;94954.28;;;33.91;34.28
27210;BME280;14721;42.668;23.386;2023-07-31T09:00:20;94894.31;;;33.48;34.97
27210;BME280;14721;42.668;23.386;2023-07-31T09:03:02;94950.56;;;32.96;34.92
27210;BME280;14721;42.668;23.386;2023-07-31T09:05:30;94948.84;;;32.08;36.00
27210;BME280;14721;42.668;23.386;2023-07-31T09:07:59;94936.19;;;32.12;36.29
27210;BME280;14721;42.668;23.386;2023-07-31T09:10:26;94907.88;;;32.65;35.25
27210;BME280;14721;42.668;23.386;2023-07-31T09:12:54;94930.47;;;33.05;35.47
27210;BME280;14721;42.668;23.386;2023-07-31T09:15:21;94923.34;;;33.41;34.22
27210;BME280;14721;42.668;23.386;2023-07-31T09:17:59;94888.38;;;33.35;33.95
27210;BME280;14721;42.668;23.386;2023-07-31T09:20:26;94915.22;;;33.03;34.71
27210;BME280;14721;42.668;23.386;2023-07-31T09:22:54;94925.75;;;32.36;35.69
27210;BME280;14721;42.668;23.386;2023-07-31T09:27:56;94923.56;;;32.59;35.67
27210;BME280;14721;42.668;23.386;2023-07-31T09:30:22;94923.41;;;33.19;34.96
27210;BME280;14721;42.668;23.386;2023-07-31T09:32:51;94922.31;;;32.94;35.06
27210;BME280;14721;42.668;23.386;2023-07-31T09:35:31;94906.31;;;32.52;35.56
27210;BME280;14721;42.668;23.386;2023-07-31T09:37:58;94910.81;;;32.15;35.67
27210;BME280;14721;42.668;23.386;2023-07-31T09:40:29;94916.41;;;31.66;36.83
27210;BME280;14721;42.668;23.386;2023-07-31T09:42:57;94868.03;;;31.14;37.11
27210;BME280;14721;42.668;23.386;2023-07-31T09:45:24;94904.25;;;31.83;37.36
27210;BME280;14721;42.668;23.386;2023-07-31T09:47:50;94910.84;;;32.20;36.59
27210;BME280;14721;42.668;23.386;2023-07-31T09:50:20;94912.03;;;32.24;36.61
27210;BME280;14721;42.668;23.386;2023-07-31T09:52:46;94900.59;;;32.59;36.04
27210;BME280;14721;42.668;23.386;2023-07-31T09:55:12;94902.28;;;32.38;36.64
27210;BME280;14721;42.668;23.386;2023-07-31T09:57:40;94896.09;;;31.93;36.48
27210;BME280;14721;42.668;23.386;2023-07-31T10:00:10;94868.66;;;31.32;37.29
27210;BME280;14721;42.668;23.386;2023-07-31T10:02:37;94887.97;;;31.49;37.89
27210;BME280;14721;42.668;23.386;2023-07-31T10:05:04;94885.81;;;31.89;36.86
27210;BME280;14721;42.668;23.386;2023-07-31T10:07:36;94886.03;;;31.82;36.92
27210;BME280;14721;42.668;23.386;2023-07-31T10:10:04;94908.22;;;31.38;36.96
27210;BME280;14721;42.668;23.386;2023-07-31T10:12:31;94909.00;;;31.05;37.86
27210;BME280;14721;42.668;23.386;2023-07-31T10:14:59;94901.34;;;31.24;37.69
27210;BME280;14721;42.668;23.386;2023-07-31T10:17:25;94899.13;;;31.26;37.65
27210;BME280;14721;42.668;23.386;2023-07-31T10:19:53;94891.69;;;31.26;37.74
27210;BME280;14721;42.668;23.386;2023-07-31T10:22:19;94884.75;;;31.07;37.47
27210;BME280;14721;42.668;23.386;2023-07-31T10:24:46;94905.19;;;31.39;37.67
27210;BME280;14721;42.668;23.386;2023-07-31T10:27:12;94898.38;;;31.80;37.11
27210;BME280;14721;42.668;23.386;2023-07-31T10:29:43;94866.59;;;31.28;36.21
27210;BME280;14721;42.668;23.386;2023-07-31T10:32:11;94879.22;;;30.90;37.22
27210;BME280;14721;42.668;23.386;2023-07-31T10:34:39;94887.94;;;30.71;37.64
27210;BME280;14721;42.668;23.386;2023-07-31T10:37:24;94894.19;;;30.94;37.00
27210;BME280;14721;42.668;23.386;2023-07-31T10:40:09;94842.41;;;30.40;37.57
27210;BME280;14721;42.668;23.386;2023-07-31T10:42:36;94882.72;;;30.30;38.26
27210;BME280;14721;42.668;23.386;2023-07-31T10:45:06;94846.06;;;30.18;37.03
27210;BME280;14721;42.668;23.386;2023-07-31T10:50:32;94880.84;;;30.19;38.02
27210;BME280;14721;42.668;23.386;2023-07-31T10:53:25;94881.88;;;29.78;38.11
27210;BME280;14721;42.668;23.386;2023-07-31T10:55:51;94879.09;;;29.55;38.35
27210;BME280;14721;42.668;23.386;2023-07-31T10:58:19;94863.56;;;29.38;39.22
27210;BME280;14721;42.668;23.386;2023-07-31T11:00:45;94854.66;;;29.82;38.98
27210;BME280;14721;42.668;23.386;2023-07-31T11:03:15;94839.06;;;29.99;38.36
27210;BME280;14721;42.668;23.386;2023-07-31T11:08:33;94844.56;;;29.99;38.28
27210;BME280;14721;42.668;23.386;2023-07-31T11:13:53;94846.69;;;30.20;38.22
27210;BME280;14721;42.668;23.386;2023-07-31T11:16:23;94851.19;;;29.98;38.24
27210;BME280;14721;42.668;23.386;2023-07-31T11:18:53;94859.16;;;30.11;37.87
27210;BME280;14721;42.668;23.386;2023-07-31T11:21:23;94859.16;;;30.11;37.98
27210;BME280;14721;42.668;23.386;2023-07-31T11:23:57;94827.91;;;30.05;37.01
27210;BME280;14721;42.668;23.386;2023-07-31T11:26:25;94851.66;;;30.62;37.03
27210;BME280;14721;42.668;23.386;2023-07-31T11:28:51;94848.69;;;30.97;36.36
27210;BME280;14721;42.668;23.386;2023-07-31T11:31:18;94848.94;;;30.95;35.70
27210;BME280;14721;42.668;23.386;2023-07-31T11:33:45;94850.81;;;30.62;35.30
27210;BME280;14721;42.668;23.386;2023-07-31T11:36:18;94826.75;;;30.57;36.02
27210;BME280;14721;42.668;23.386;2023-07-31T11:38:52;94848.03;;;31.07;35.66
27210;BME280;14721;42.668;23.386;2023-07-31T11:41:20;94840.38;;;31.09;36.11
27210;BME280;14721;42.668;23.386;2023-07-31T11:43:46;94837.16;;;30.83;35.18
27210;BME280;14721;42.668;23.386;2023-07-31T11:46:20;94842.81;;;30.32;36.35
27210;BME280;14721;42.668;23.386;2023-07-31T11:48:45;94826.22;;;30.04;36.67
27210;BME280;14721;42.668;23.386;2023-07-31T11:51:13;94830.88;;;30.43;36.66
27210;BME280;14721;42.668;23.386;2023-07-31T11:53:47;94846.06;;;30.29;36.91
27210;BME280;14721;42.668;23.386;2023-07-31T11:56:20;94800.59;;;29.64;37.89
27210;BME280;14721;42.668;23.386;2023-07-31T11:58:52;94826.59;;;30.08;37.75
27210;BME280;14721;42.668;23.386;2023-07-31T12:01:21;94834.41;;;29.99;37.89
27210;BME280;14721;42.668;23.386;2023-07-31T12:03:50;94832.22;;;30.01;37.62
27210;BME280;14721;42.668;23.386;2023-07-31T12:06:16;94831.97;;;30.03;37.88
27210;BME280;14721;42.668;23.386;2023-07-31T12:08:42;94807.72;;;29.88;37.17
27210;BME280;14721;42.668;23.386;2023-07-31T12:11:08;94834.16;;;30.01;37.57
27210;BME280;14721;42.668;23.386;2023-07-31T12:13:38;94812.91;;;29.73;37.53
27210;BME280;14721;42.668;23.386;2023-07-31T12:16:04;94836.97;;;29.78;37.29
27210;BME280;14721;42.668;23.386;2023-07-31T12:18:35;94816.63;;;29.67;38.33
27210;BME280;14721;42.668;23.386;2023-07-31T12:21:02;94813.84;;;29.90;38.02
27210;BME280;14721;42.668;23.386;2023-07-31T12:23:30;94807.63;;;30.23;37.64
27210;BME280;14721;42.668;23.386;2023-07-31T12:28:25;94825.09;;;30.56;37.37
27210;BME280;14721;42.668;23.386;2023-07-31T12:30:51;94797.66;;;30.50;37.12
27210;BME280;14721;42.668;23.386;2023-07-31T12:33:19;94796.69;;;30.28;37.48
27210;BME280;14721;42.668;23.386;2023-07-31T12:35:46;94816.00;;;30.16;37.69
27210;BME280;14721;42.668;23.386;2023-07-31T12:38:20;94784.84;;;29.88;37.64
27210;BME280;14721;42.668;23.386;2023-07-31T12:40:45;94811.13;;;30.07;37.72
27210;BME280;14721;42.668;23.386;2023-07-31T12:43:10;94805.16;;;29.98;37.84
27210;BME280;14721;42.668;23.386;2023-07-31T12:45:36;94791.13;;;29.72;38.08
27210;BME280;14721;42.668;23.386;2023-07-31T12:48:02;94805.31;;;29.92;38.05
27210;BME280;14721;42.668;23.386;2023-07-31T12:50:27;94787.31;;;30.01;37.87
27210;BME280;14721;42.668;23.386;2023-07-31T12:52:53;94798.53;;;30.11;37.99
27210;BME280;14721;42.668;23.386;2023-07-31T12:55:20;94772.03;;;29.82;37.29
27210;BME280;14721;42.668;23.386;2023-07-31T12:57:46;94775.44;;;29.61;37.68
27210;BME280;14721;42.668;23.386;2023-07-31T13:00:12;94764.03;;;29.06;39.00
27210;BME280;14721;42.668;23.386;2023-07-31T13:02:41;94776.78;;;29.00;39.17
27210;BME280;14721;42.668;23.386;2023-07-31T13:05:07;94775.16;;;29.23;38.68
27210;BME280;14721;42.668;23.386;2023-07-31T13:07:40;94789.00;;;29.39;39.20
27210;BME280;14721;42.668;23.386;2023-07-31T13:10:07;94783.47;;;29.51;38.74
27210;BME280;14721;42.668;23.386;2023-07-31T13:12:34;94747.31;;;29.59;38.75